createdAt,value
2023-04-13T00:04:02.936Z,4.66
2023-04-13T00:09:00.798Z,4.57
2023-04-13T00:13:58.743Z,4.46
2023-04-13T00:18:55.382Z,4.38
2023-04-13T00:23:53.150Z,4.29
2023-04-13T00:28:49.636Z,4.18
2023-04-13T00:33:46.096Z,4.11
2023-04-13T00:38:45.017Z,4.03
2023-04-13T00:43:42.246Z,4.08
2023-04-13T00:48:39.203Z,4.00
2023-04-13T00:53:36.704Z,3.98
2023-04-13T00:58:34.816Z,3.97
2023-04-13T01:03:32.836Z,3.90
2023-04-13T01:08:40.081Z,3.79
2023-04-13T01:13:56.488Z,3.71
2023-04-13T01:18:54.736Z,3.71
2023-04-13T01:23:59.950Z,3.63
2023-04-13T01:28:58.718Z,3.56
2023-04-13T01:33:57.446Z,3.53
2023-04-13T01:38:54.428Z,3.50
2023-04-13T01:43:51.613Z,3.38
2023-04-13T01:48:58.207Z,3.31
2023-04-13T01:54:12.292Z,3.27
2023-04-13T01:59:12.748Z,3.30
2023-04-13T02:04:11.779Z,3.29
2023-04-13T02:09:09.875Z,3.26
2023-04-13T02:14:06.357Z,3.20
2023-04-13T02:19:02.791Z,3.23
2023-04-13T02:23:59.477Z,3.25
2023-04-13T02:28:57.104Z,3.16
2023-04-13T02:33:53.690Z,3.22
2023-04-13T02:38:50.289Z,3.14
2023-04-13T02:43:46.659Z,3.17
2023-04-13T02:48:43.078Z,3.14
2023-04-13T03:11:24.968Z,3.08
2023-04-13T03:16:21.528Z,3.08
2023-04-13T03:21:18.078Z,3.04
2023-04-13T03:26:14.463Z,2.99
2023-04-13T03:31:10.913Z,2.94
2023-04-13T03:36:08.492Z,2.88
2023-04-13T03:41:05.586Z,2.86
2023-04-13T03:46:02.091Z,2.86
2023-04-13T03:50:58.562Z,2.82
2023-04-13T03:55:55.321Z,2.84
2023-04-13T04:00:51.813Z,2.84
2023-04-13T04:05:48.270Z,2.81
2023-04-13T04:10:44.691Z,2.80
2023-04-13T04:15:41.164Z,2.86
2023-04-13T04:20:37.538Z,2.88
2023-04-13T04:25:34.400Z,2.89
2023-04-13T04:30:33.910Z,2.88
2023-04-13T04:35:33.978Z,2.88
2023-04-13T04:40:30.982Z,2.93
2023-04-13T04:45:27.545Z,3.00
2023-04-13T04:50:24.659Z,3.03
2023-04-13T04:55:21.199Z,3.10
2023-04-13T05:00:17.991Z,3.18
2023-04-13T05:05:14.506Z,3.17
2023-04-13T05:10:10.960Z,3.17
2023-04-13T05:15:08.729Z,3.22
2023-04-13T05:20:07.077Z,3.31
2023-04-13T05:25:03.977Z,3.55
2023-04-13T05:30:00.457Z,3.76
2023-04-13T05:34:56.890Z,3.76
2023-04-13T05:39:53.636Z,3.81
2023-04-13T05:44:50.118Z,3.94
2023-04-13T05:49:46.585Z,4.07
2023-04-13T05:54:43.091Z,4.25
2023-04-13T05:59:40.015Z,4.26
2023-04-13T06:04:36.553Z,4.38
2023-04-13T06:09:33.063Z,4.65
2023-04-13T06:14:29.532Z,5.03
2023-04-13T06:19:28.269Z,5.10
2023-04-13T06:24:25.518Z,5.02
2023-04-13T06:29:22.162Z,5.13
2023-04-13T06:34:19.045Z,5.25
2023-04-13T06:39:15.833Z,5.28
2023-04-13T06:44:12.483Z,5.37
2023-04-13T06:49:09.178Z,5.55
2023-04-13T06:54:06.001Z,5.63
2023-04-13T06:59:03.166Z,5.73
2023-04-13T07:04:00.192Z,5.81
2023-04-13T07:08:56.845Z,5.92
2023-04-13T07:13:53.471Z,5.92
2023-04-13T07:18:50.036Z,5.91
2023-04-13T07:23:46.469Z,6.11
2023-04-13T07:28:43.050Z,6.39
2023-04-13T07:33:39.458Z,6.56
2023-04-13T07:38:35.837Z,6.45
2023-04-13T07:43:32.311Z,6.53
2023-04-13T07:48:28.774Z,6.59
2023-04-13T07:53:25.213Z,6.82
2023-04-13T07:58:21.836Z,6.98
2023-04-13T08:03:18.331Z,7.19
2023-04-13T08:08:14.818Z,7.40
2023-04-13T08:13:11.288Z,7.60
2023-04-13T08:18:07.784Z,7.59
2023-04-13T08:23:05.059Z,7.77
2023-04-13T08:28:01.574Z,7.89
2023-04-13T08:32:58.183Z,8.05
2023-04-13T08:37:55.046Z,8.14
2023-04-13T08:42:54.317Z,8.19
2023-04-13T08:47:51.261Z,8.02
2023-04-13T08:52:47.942Z,8.01
2023-04-13T08:57:49.491Z,8.22
2023-04-13T09:03:00.289Z,8.21
2023-04-13T09:08:03.779Z,8.17
2023-04-13T09:13:00.965Z,8.01
2023-04-13T09:18:07.290Z,8.07
2023-04-13T09:23:14.862Z,8.32
2023-04-13T09:28:18.659Z,8.76
2023-04-13T09:33:16.776Z,8.95
2023-04-13T09:38:16.135Z,9.37
2023-04-13T09:43:12.557Z,9.34
2023-04-13T09:48:20.602Z,9.98
2023-04-13T09:53:17.216Z,10.16
2023-04-13T09:58:17.325Z,10.98
2023-04-13T10:03:15.596Z,10.66
2023-04-13T10:08:12.208Z,10.52
2023-04-13T10:13:22.650Z,11.27
2023-04-13T10:18:41.132Z,10.08
2023-04-13T10:23:38.959Z,10.77
2023-04-13T10:28:46.204Z,10.15
2023-04-13T10:33:49.943Z,9.46
2023-04-13T10:38:47.056Z,9.99
2023-04-13T10:43:43.526Z,12.29
2023-04-13T10:48:43.108Z,13.81
2023-04-13T10:53:39.607Z,14.89
2023-04-13T10:58:36.125Z,13.07
2023-04-13T11:03:32.710Z,13.20
2023-04-13T11:08:30.414Z,14.07
2023-04-13T11:13:28.883Z,11.88
2023-04-13T11:18:26.693Z,11.55
2023-04-13T11:23:24.544Z,13.51
2023-04-13T11:28:25.207Z,14.53
2023-04-13T11:33:29.934Z,14.69
2023-04-13T11:38:27.860Z,14.41
2023-04-13T11:43:25.251Z,13.77
2023-04-13T11:48:22.778Z,12.59
2023-04-13T11:53:19.958Z,13.37
2023-04-13T11:58:18.722Z,13.64
2023-04-13T12:08:22.844Z,14.45
2023-04-13T12:13:35.369Z,15.32
2023-04-13T12:18:37.566Z,15.24
2023-04-13T12:23:34.373Z,15.84
2023-04-13T12:28:35.231Z,14.86
2023-04-13T12:33:31.797Z,17.20
2023-04-13T12:38:28.212Z,15.49
2023-04-13T12:43:26.090Z,17.00
2023-04-13T12:48:22.520Z,15.34
2023-04-13T12:53:18.942Z,14.79
2023-04-13T12:58:15.566Z,15.51
2023-04-13T13:03:14.457Z,13.84
2023-04-13T13:08:11.532Z,13.78
2023-04-13T13:13:08.058Z,12.92
2023-04-13T13:18:06.575Z,13.45
2023-04-13T13:23:03.105Z,13.23
2023-04-13T13:28:13.034Z,16.37
2023-04-13T13:33:10.954Z,13.98
2023-04-13T13:38:07.441Z,16.72
2023-04-13T13:43:04.500Z,15.32
2023-04-13T13:48:01.103Z,14.36
2023-04-13T13:53:03.058Z,15.27
2023-04-13T13:58:01.002Z,13.92
2023-04-13T14:02:57.978Z,13.49
2023-04-13T14:07:54.462Z,13.11
2023-04-13T14:12:52.589Z,12.85
2023-04-13T14:18:02.419Z,12.22
2023-04-13T14:23:02.828Z,11.97
2023-04-13T14:27:59.216Z,10.86
2023-04-13T14:32:56.471Z,10.56
2023-04-13T14:37:53.183Z,10.58
2023-04-13T14:42:52.873Z,12.04
2023-04-13T14:47:50.048Z,11.72
2023-04-13T14:52:47.396Z,12.21
2023-04-13T14:57:45.101Z,12.47
2023-04-13T15:02:41.932Z,11.65
2023-04-13T15:07:38.546Z,13.64
2023-04-13T15:12:35.135Z,14.55
2023-04-13T15:17:31.621Z,14.66
2023-04-13T15:22:28.127Z,14.90
2023-04-13T15:27:26.779Z,15.58
2023-04-13T15:32:23.390Z,16.14
2023-04-13T15:37:19.973Z,15.91
2023-04-13T15:42:16.463Z,14.48
2023-04-13T15:47:12.954Z,16.26
2023-04-13T15:52:09.409Z,13.80
2023-04-13T15:57:06.631Z,13.20
2023-04-13T16:02:03.333Z,12.83
2023-04-13T16:12:02.615Z,14.76
2023-04-13T16:16:59.968Z,14.19
2023-04-13T16:21:57.813Z,13.06
2023-04-13T16:26:54.274Z,12.72
2023-04-13T16:31:50.723Z,12.14
2023-04-13T16:36:48.210Z,11.78
2023-04-13T16:41:44.662Z,11.50
2023-04-13T16:46:41.279Z,10.95
2023-04-13T16:51:37.884Z,9.37
2023-04-13T16:56:34.341Z,8.32
2023-04-13T17:01:30.985Z,8.01
2023-04-13T17:06:27.664Z,7.89
2023-04-13T17:11:24.032Z,8.46
2023-04-13T17:16:21.313Z,9.31
2023-04-13T17:21:18.100Z,9.62
2023-04-13T17:26:14.954Z,9.65
2023-04-13T17:31:11.390Z,9.58
2023-04-13T17:36:08.116Z,9.29
2023-04-13T17:41:06.488Z,8.97
2023-04-13T17:46:03.000Z,8.67
2023-04-13T17:50:59.524Z,8.45
2023-04-13T17:55:56.127Z,8.21
2023-04-13T18:00:52.625Z,8.11
2023-04-13T18:05:49.053Z,7.99
2023-04-13T18:10:46.015Z,7.82
2023-04-13T18:15:47.224Z,7.83
2023-04-13T18:20:45.493Z,7.77
2023-04-13T18:25:41.935Z,7.75
2023-04-13T18:30:38.337Z,7.55
2023-04-13T18:35:35.608Z,7.58
2023-04-13T18:40:32.028Z,7.52
2023-04-13T18:45:28.587Z,7.46
2023-04-13T18:50:26.505Z,7.62
2023-04-13T18:55:25.499Z,7.77
2023-04-13T19:00:22.252Z,8.00
2023-04-13T19:05:19.301Z,8.04
2023-04-13T19:10:15.793Z,8.09
2023-04-13T19:15:12.215Z,7.95
2023-04-13T19:20:10.535Z,7.93
2023-04-13T19:25:13.897Z,8.12
2023-04-13T19:30:14.262Z,7.99
2023-04-13T19:35:12.608Z,7.99
2023-04-13T19:40:10.305Z,7.98
2023-04-13T19:45:07.213Z,8.12
2023-04-13T19:50:04.463Z,8.04
2023-04-13T19:55:01.080Z,7.98
2023-04-13T19:59:57.685Z,7.92
2023-04-13T20:04:54.516Z,7.74
2023-04-13T20:09:51.079Z,7.53
2023-04-13T20:14:48.245Z,7.41
2023-04-13T20:19:44.697Z,7.26
2023-04-13T20:24:41.097Z,7.19
2023-04-13T20:29:37.573Z,7.20
2023-04-13T20:34:38.054Z,7.29
2023-04-13T20:39:50.264Z,7.27
2023-04-13T20:45:02.981Z,7.25
2023-04-13T20:50:03.694Z,7.02
2023-04-13T20:55:02.045Z,6.87
2023-04-13T21:00:00.034Z,6.80
2023-04-13T21:04:59.871Z,6.73
2023-04-13T21:09:58.426Z,6.61
2023-04-13T21:14:54.934Z,6.55
2023-04-13T21:19:51.417Z,6.43
2023-04-13T21:24:47.806Z,6.34
2023-04-13T21:42:50.102Z,6.03
2023-04-13T21:47:48.175Z,5.98
2023-04-13T21:52:46.722Z,5.91
2023-04-13T21:57:46.942Z,5.89
2023-04-13T22:02:44.107Z,5.84
2023-04-13T22:07:43.178Z,5.80
2023-04-13T22:12:40.377Z,5.70
2023-04-13T22:17:36.937Z,5.69
2023-04-13T22:22:36.292Z,5.62
2023-04-13T22:27:52.258Z,5.62
2023-04-13T22:32:56.722Z,5.57
2023-04-13T22:37:56.158Z,5.49
2023-04-13T22:48:21.234Z,5.46
2023-04-13T22:59:12.761Z,5.40
2023-04-13T23:04:09.537Z,5.36
2023-04-13T23:09:07.017Z,5.32
2023-04-13T23:14:03.535Z,5.33
2023-04-13T23:19:00.545Z,5.28
2023-04-13T23:23:57.199Z,5.25
2023-04-13T23:28:53.644Z,5.18
2023-04-13T23:33:50.829Z,5.20
2023-04-13T23:38:48.922Z,5.13
2023-04-13T23:43:46.705Z,5.10
2023-04-13T23:48:43.336Z,5.02
2023-04-13T23:53:39.813Z,4.99
2023-04-13T23:58:38.030Z,4.91
